createdAt,value
2022-08-07T00:00:57.167Z,20.50
2022-08-07T00:05:56.803Z,20.60
2022-08-07T00:10:58.270Z,20.70
2022-08-07T00:15:56.031Z,20.80
2022-08-07T00:21:08.298Z,20.80
2022-08-07T00:26:59.258Z,20.60
2022-08-07T00:31:41.497Z,20.60
2022-08-07T00:36:42.667Z,20.60
2022-08-07T00:41:53.199Z,20.70
2022-08-07T00:46:51.947Z,20.60
2022-08-07T00:51:58.354Z,20.50
2022-08-07T00:56:56.096Z,20.60
2022-08-07T01:01:57.845Z,20.40
2022-08-07T01:06:56.813Z,20.40
2022-08-07T01:12:09.811Z,20.50
2022-08-07T01:17:13.407Z,20.50
2022-08-07T01:22:16.202Z,20.40
2022-08-07T01:27:20.391Z,20.20
2022-08-07T01:32:19.170Z,20.20
2022-08-07T01:37:20.291Z,19.90
2022-08-07T01:42:39.718Z,19.80
2022-08-07T01:48:20.602Z,19.70
2022-08-07T01:52:56.689Z,19.80
2022-08-07T01:58:05.901Z,19.80
2022-08-07T02:03:21.916Z,19.80
2022-08-07T02:08:26.577Z,19.70
2022-08-07T02:13:56.646Z,19.50
2022-08-07T02:18:47.169Z,19.50
2022-08-07T02:23:46.360Z,19.70
2022-08-07T02:28:45.380Z,19.80
2022-08-07T02:34:01.788Z,19.60
2022-08-07T02:39:09.491Z,19.60
2022-08-07T02:44:16.851Z,19.50
2022-08-07T02:49:55.786Z,19.50
2022-08-07T02:54:34.217Z,19.50
2022-08-07T02:59:33.150Z,19.40
2022-08-07T03:04:31.334Z,19.40
2022-08-07T03:09:43.698Z,19.40
2022-08-07T03:14:48.559Z,19.40
2022-08-07T03:19:55.179Z,19.20
2022-08-07T03:24:53.281Z,19.30
2022-08-07T03:29:52.798Z,19.30
2022-08-07T03:35:16.801Z,19.40
2022-08-07T03:40:17.042Z,19.60
2022-08-07T03:45:29.979Z,19.70
2022-08-07T03:50:30.195Z,19.70
2022-08-07T03:55:42.766Z,19.40
2022-08-07T04:00:53.297Z,19.40
2022-08-07T04:05:58.629Z,19.50
2022-08-07T04:12:23.605Z,19.50
2022-08-07T04:16:14.319Z,19.50
2022-08-07T04:21:31.120Z,19.40
2022-08-07T04:26:30.735Z,19.30
2022-08-07T04:32:02.194Z,19.20
2022-08-07T04:36:49.422Z,19.20
2022-08-07T04:41:50.396Z,19.20
2022-08-07T04:48:01.058Z,19.20
2022-08-07T04:53:27.714Z,19.30
2022-08-07T05:04:18.733Z,19.50
2022-08-07T05:09:54.450Z,19.50
2022-08-07T05:15:04.351Z,19.50
2022-08-07T05:20:07.764Z,19.50
2022-08-07T05:25:11.822Z,19.40
2022-08-07T05:30:30.240Z,19.40
2022-08-07T05:35:41.784Z,19.30
2022-08-07T05:40:50.632Z,19.20
2022-08-07T05:45:50.119Z,19.10
2022-08-07T05:50:54.198Z,19.20
2022-08-07T05:56:03.085Z,19.30
2022-08-07T06:01:05.058Z,19.40
2022-08-07T06:06:03.580Z,19.50
2022-08-07T06:11:03.849Z,19.60
2022-08-07T06:16:03.591Z,19.50
2022-08-07T06:22:16.918Z,19.20
2022-08-07T06:26:19.754Z,19.20
2022-08-07T06:31:18.717Z,19.10
2022-08-07T06:36:34.880Z,19.00
2022-08-07T06:42:13.374Z,18.90
2022-08-07T06:47:15.189Z,18.90
2022-08-07T06:52:16.040Z,19.20
2022-08-07T06:57:13.820Z,19.40
2022-08-07T07:02:49.253Z,19.60
2022-08-07T07:07:59.315Z,19.50
2022-08-07T07:13:56.245Z,19.30
2022-08-07T07:18:48.110Z,19.40
2022-08-07T07:24:08.529Z,19.50
2022-08-07T07:29:56.761Z,19.50
2022-08-07T07:34:31.981Z,19.70
2022-08-07T07:39:31.219Z,19.70
2022-08-07T07:44:49.679Z,19.70
2022-08-07T07:50:35.012Z,19.80
2022-08-07T07:55:10.917Z,19.90
2022-08-07T08:00:10.641Z,20.10
2022-08-07T08:05:11.557Z,20.00
2022-08-07T08:10:14.919Z,20.10
2022-08-07T08:15:43.602Z,20.30
2022-08-07T08:20:54.596Z,20.70
2022-08-07T08:26:14.583Z,20.80
2022-08-07T08:31:29.879Z,20.90
2022-08-07T08:36:41.098Z,20.80
2022-08-07T08:42:09.269Z,20.80
2022-08-07T08:47:17.332Z,20.80
2022-08-07T08:52:24.665Z,20.90
2022-08-07T08:57:38.589Z,21.00
2022-08-07T09:02:52.622Z,21.30
2022-08-07T09:08:17.818Z,21.70
2022-08-07T09:13:39.576Z,22.20
2022-08-07T09:18:58.921Z,22.60
2022-08-07T09:24:53.916Z,22.80
2022-08-07T09:30:05.877Z,23.20
2022-08-07T09:36:02.891Z,23.50
2022-08-07T09:41:04.442Z,23.80
2022-08-07T09:47:42.328Z,24.90
2022-08-07T09:52:34.302Z,26.30
2022-08-07T09:57:46.525Z,26.30
2022-08-07T10:02:55.240Z,25.40
2022-08-07T10:08:27.860Z,25.60
2022-08-07T10:14:01.225Z,25.30
2022-08-07T10:19:17.500Z,25.10
2022-08-07T10:24:42.944Z,24.80
2022-08-07T10:29:51.773Z,24.90
2022-08-07T10:34:59.460Z,24.70
2022-08-07T10:40:12.839Z,24.70
2022-08-07T10:45:57.427Z,24.70
2022-08-07T10:50:50.331Z,25.10
2022-08-07T10:56:31.375Z,24.70
2022-08-07T11:02:27.692Z,24.10
2022-08-07T11:08:02.669Z,23.70
2022-08-07T11:13:42.479Z,23.70
2022-08-07T11:18:35.707Z,23.90
2022-08-07T11:24:08.526Z,24.40
2022-08-07T11:29:13.288Z,24.60
2022-08-07T11:34:46.083Z,25.00
2022-08-07T11:40:09.261Z,25.40
2022-08-07T11:45:35.860Z,25.70
2022-08-07T11:51:10.578Z,25.40
2022-08-07T11:57:14.020Z,25.30
2022-08-07T12:02:20.746Z,25.60
2022-08-07T12:08:03.696Z,25.70
2022-08-07T12:13:11.284Z,25.20
2022-08-07T12:18:29.832Z,24.80
2022-08-07T12:24:07.466Z,24.90
2022-08-07T12:29:04.843Z,25.20
2022-08-07T12:34:04.126Z,25.40
2022-08-07T12:39:42.098Z,25.40
2022-08-07T12:44:29.470Z,25.40
2022-08-07T12:49:44.188Z,25.40
2022-08-07T12:55:24.924Z,25.40
2022-08-07T13:01:02.982Z,25.70
2022-08-07T13:06:21.554Z,25.60
2022-08-07T13:12:03.566Z,25.40
2022-08-07T13:17:12.894Z,25.50
2022-08-07T13:22:53.330Z,25.10
2022-08-07T13:28:14.177Z,25.30
2022-08-07T13:34:31.829Z,25.40
2022-08-07T13:38:47.271Z,25.30
2022-08-07T13:43:52.783Z,25.10
2022-08-07T13:48:59.368Z,25.00
2022-08-07T13:54:16.487Z,25.10
2022-08-07T13:59:27.179Z,25.40
2022-08-07T14:04:29.709Z,25.60
2022-08-07T14:10:01.297Z,25.40
2022-08-07T14:15:00.683Z,25.50
2022-08-07T14:20:43.429Z,25.40
2022-08-07T14:25:29.372Z,25.30
2022-08-07T14:30:40.699Z,25.20
2022-08-07T14:35:45.292Z,25.20
2022-08-07T14:40:49.509Z,25.10
2022-08-07T14:45:49.063Z,25.00
2022-08-07T14:50:51.175Z,25.00
2022-08-07T15:01:22.043Z,24.90
2022-08-07T15:06:27.789Z,25.00
2022-08-07T15:11:52.879Z,24.90
2022-08-07T15:17:00.567Z,24.90
2022-08-07T15:22:04.708Z,24.80
2022-08-07T15:27:10.064Z,24.60
2022-08-07T15:32:11.733Z,24.60
2022-08-07T15:37:11.468Z,24.70
2022-08-07T15:42:44.825Z,24.70
2022-08-07T15:48:01.318Z,24.50
2022-08-07T15:53:05.042Z,24.50
2022-08-07T15:58:04.302Z,24.60
2022-08-07T16:03:05.209Z,24.50
2022-08-07T16:08:33.151Z,24.60
2022-08-07T16:14:03.184Z,24.50
2022-08-07T16:19:42.541Z,24.40
2022-08-07T16:25:52.705Z,24.20
2022-08-07T16:31:05.728Z,24.00
2022-08-07T16:36:19.954Z,23.90
2022-08-07T16:41:23.783Z,23.80
2022-08-07T16:47:07.621Z,23.80
2022-08-07T16:52:51.447Z,23.70
2022-08-07T16:58:15.967Z,23.60
2022-08-07T17:03:57.767Z,23.40
2022-08-07T17:14:18.033Z,23.20
2022-08-07T17:20:02.033Z,23.00
2022-08-07T17:25:04.923Z,23.00
2022-08-07T17:30:14.046Z,23.00
2022-08-07T17:35:51.215Z,22.90
2022-08-07T17:42:03.689Z,22.80
2022-08-07T17:47:42.035Z,22.60
2022-08-07T17:52:39.643Z,22.50
2022-08-07T17:57:59.276Z,22.40
2022-08-07T18:04:04.392Z,22.30
2022-08-07T18:09:05.407Z,22.00
2022-08-07T18:14:19.475Z,22.00
2022-08-07T18:21:09.698Z,22.00
2022-08-07T18:24:51.594Z,21.60
2022-08-07T18:30:05.841Z,21.40
2022-08-07T18:35:16.003Z,21.40
2022-08-07T18:40:59.812Z,21.30
2022-08-07T18:46:27.026Z,21.40
2022-08-07T18:52:37.823Z,21.50
2022-08-07T18:57:30.732Z,21.40
2022-08-07T19:02:42.900Z,21.40
2022-08-07T19:07:52.936Z,21.20
2022-08-07T19:13:10.154Z,21.10
2022-08-07T19:18:44.950Z,21.00
2022-08-07T19:23:58.110Z,20.80
2022-08-07T19:30:57.947Z,20.70
2022-08-07T19:34:32.594Z,20.70
2022-08-07T19:39:56.541Z,20.70
2022-08-07T19:44:55.836Z,20.70
2022-08-07T19:49:56.389Z,20.80
2022-08-07T19:54:57.472Z,20.70
2022-08-07T20:00:11.993Z,20.80
2022-08-07T20:05:31.661Z,20.70
2022-08-07T20:11:02.166Z,20.70
2022-08-07T20:16:03.906Z,20.50
2022-08-07T20:21:14.244Z,20.50
2022-08-07T20:26:29.944Z,20.40
2022-08-07T20:31:31.636Z,20.30
2022-08-07T20:36:32.589Z,20.30
2022-08-07T20:41:38.393Z,20.40
2022-08-07T20:46:43.731Z,20.50
2022-08-07T20:51:50.203Z,20.50
2022-08-07T20:56:52.894Z,20.50
2022-08-07T21:01:55.335Z,20.50
2022-08-07T21:07:04.419Z,20.50
2022-08-07T21:12:15.089Z,20.30
2022-08-07T21:18:03.626Z,20.30
2022-08-07T21:22:44.772Z,20.20
2022-08-07T21:28:18.973Z,20.00
2022-08-07T21:34:00.592Z,20.20
2022-08-07T21:39:46.590Z,20.30
2022-08-07T21:44:51.139Z,20.20
2022-08-07T21:50:02.319Z,20.20
2022-08-07T21:55:19.499Z,20.20
2022-08-07T22:00:25.868Z,20.30
2022-08-07T22:05:44.545Z,20.40
2022-08-07T22:10:44.471Z,20.20
2022-08-07T22:16:43.356Z,20.20
2022-08-07T22:22:05.066Z,20.10
2022-08-07T22:27:13.058Z,20.20
2022-08-07T22:32:27.125Z,20.20
2022-08-07T22:38:03.432Z,20.00
2022-08-07T22:43:13.617Z,20.00
2022-08-07T22:48:54.705Z,20.10
2022-08-07T22:54:09.218Z,20.10
2022-08-07T22:59:20.165Z,20.20
2022-08-07T23:04:57.798Z,20.00
2022-08-07T23:10:36.477Z,20.10
2022-08-07T23:16:07.318Z,20.10
2022-08-07T23:21:11.911Z,20.10
2022-08-07T23:26:35.579Z,20.10
2022-08-07T23:34:23.251Z,20.10
2022-08-07T23:38:01.111Z,20.10
2022-08-07T23:43:18.555Z,20.20
2022-08-07T23:48:25.206Z,20.20
2022-08-07T23:53:53.868Z,20.00
